Lima Township, Michigan
Current Conditions -  °F | °C
As of 9:31 AM on Thursday 27 Nov 2014 (Local Time) from KARB Reporting Station
Overcast Overcast  
Wind Chill: 22°   Ceiling: 2900
Heat Index: 30°   Visibility: 10mi
Dew Point: 21°   Wind: 9mph
Humidity: 69%   Direction: 300°WNW
Pressure: 30.16"   Gusts: NA
Location:  42.3129°N, 84.0322°W
Report Text: KARB 271431Z 30008KT 10SM SCT021 BKN029 OVC039 M01/M06 A3016 RMK AO2 T10111061
Loading
Personal Weather Stations






























Interactive Weather Map New forecast layout! Learn more

10-Day Weather Forecast

Advertisements
Track Severe Weather on mobile